Terminal Aerodrome Forecast
Issued by NWS Wilmington, OH

Current Version | Previous Version | Text Only | Print | Product List | Glossary Off
Versions: 1 2 3 4 5 6 7 8 9 10 11 12 13 14 15 16 17 18 19 20 21 22 23

000
FTUS41 KILN 291120
TAFCVG
TAF
KCVG 291120Z 2912/3018 13004KT P6SM OVC250
     FM291400 21007KT P6SM SCT040 OVC200
     FM300000 18004KT P6SM BKN040 OVC150
      TEMPO 3005/3007 -SHRA BKN030=

USA.gov is the U.S. government's official web portal to all federal, state and local government web resources and services.